Time;durP1;ratioP1;P1;durP2;ratioP2;P2;SDS_P1;SDS_P2;PMS_P1;PMS_P2;Temp;Humidity;BMP_temperature;BMP_pressure;BME280_temperature;BME280_humidity;BME280_pressure;Samples;Min_cycle;Max_cycle;Signal;HPM_P1;HPM_P2
2022/11/27 00:00:36;;;;;;;6.23;1.87;;;;;;;4.19;59.06;101594.09;10136018;29;20265;-86
2022/11/27 00:05:59;;;;;;;5.20;2.43;;;;;;;4.53;58.76;101584.38;10139035;29;20233;-88
2022/11/27 00:11:23;;;;;;;6.27;2.97;;;;;;;4.29;58.85;101575.50;10136971;29;20459;-80
2022/11/27 00:16:46;;;;;;;5.10;1.70;;;;;;;4.40;58.61;101576.44;10106039;29;20201;-90
2022/11/27 00:22:09;;;;;;;6.17;2.10;;;;;;;4.21;59.01;101578.75;10120903;29;20261;-91
2022/11/27 00:27:32;;;;;;;5.80;2.70;;;;;;;3.73;60.98;101560.88;10122459;29;20245;-91
2022/11/27 00:32:55;;;;;;;6.40;2.07;;;;;;;3.90;60.44;101549.69;10118985;29;20193;-92
2022/11/27 00:38:21;;;;;;;4.03;1.53;;;;;;;4.08;59.80;101546.53;10130825;29;20221;-93
2022/11/27 00:43:44;;;;;;;4.37;1.93;;;;;;;4.12;58.83;101533.75;10130601;29;20281;-80
2022/11/27 00:49:07;;;;;;;7.67;2.00;;;;;;;3.79;60.03;101532.00;10106012;29;20340;-81
2022/11/27 00:54:29;;;;;;;3.57;1.50;;;;;;;3.55;60.85;101535.28;10085348;29;20599;-80
2022/11/27 00:59:51;;;;;;;7.13;1.87;;;;;;;3.47;59.93;101525.41;10084351;29;20249;-79
2022/11/27 01:05:13;;;;;;;6.40;2.00;;;;;;;3.58;59.13;101527.22;10065166;29;20310;-79
2022/11/27 01:10:35;;;;;;;4.80;1.47;;;;;;;3.21;60.55;101529.78;10062642;29;20221;-79
2022/11/27 01:16:03;;;;;;;4.33;2.00;;;;;;;3.73;58.96;101526.56;10052966;29;20831;-79
2022/11/27 01:21:28;;;;;;;4.07;1.73;;;;;;;3.18;61.15;101535.03;10061423;29;20271;-79
2022/11/27 01:26:50;;;;;;;6.07;1.63;;;;;;;3.38;59.29;101540.91;10063441;29;20602;-79
2022/11/27 01:32:12;;;;;;;3.17;1.40;;;;;;;3.35;59.55;101524.69;10074891;29;20286;-79
2022/11/27 01:37:34;;;;;;;2.47;1.80;;;;;;;3.80;58.49;101524.47;10066191;29;20221;-80
2022/11/27 01:42:57;;;;;;;3.67;1.63;;;;;;;3.69;58.11;101523.44;10060047;29;20866;-79
2022/11/27 01:48:19;;;;;;;2.13;1.73;;;;;;;3.50;58.72;101524.06;10058873;29;20261;-78
2022/11/27 01:53:41;;;;;;;2.87;1.77;;;;;;;3.32;59.19;101514.91;10083828;29;20707;-79
2022/11/27 01:59:03;;;;;;;3.87;1.67;;;;;;;3.86;57.66;101506.69;10076383;29;20209;-81
2022/11/27 02:04:25;;;;;;;4.00;1.80;;;;;;;3.22;59.51;101511.13;10072899;29;20788;-87
2022/11/27 02:09:47;;;;;;;3.77;1.30;;;;;;;3.43;59.02;101508.34;10103799;29;20209;-80
2022/11/27 02:15:22;;;;;;;3.50;1.60;;;;;;;3.48;59.16;101498.38;10072249;29;20676;-79
2022/11/27 02:21:05;;;;;;;4.77;2.00;;;;;;;2.96;60.53;101487.66;10049886;29;20600;-79
2022/11/27 02:26:52;;;;;;;4.17;1.97;;;;;;;2.81;60.80;101466.00;10066212;29;20261;-79
2022/11/27 02:32:20;;;;;;;2.53;1.80;;;;;;;2.90;60.88;101463.63;10080539;29;20230;-81
2022/11/27 02:37:48;;;;;;;5.33;2.20;;;;;;;3.22;59.38;101455.41;10072861;29;20225;-79
2022/11/27 02:43:18;;;;;;;5.50;2.80;;;;;;;3.46;58.49;101443.75;10072205;29;20238;-80
2022/11/27 02:48:49;;;;;;;5.43;2.27;;;;;;;3.38;58.53;101441.44;10082506;29;20265;-85
2022/11/27 02:54:14;;;;;;;3.23;1.90;;;;;;;3.32;58.83;101430.47;10159547;29;20220;-78
2022/11/27 02:59:37;;;;;;;2.83;1.83;;;;;;;2.97;59.81;101408.56;10129017;29;20232;-80
2022/11/27 03:05:01;;;;;;;4.77;2.10;;;;;;;2.82;60.11;101412.00;10135278;29;20245;-78
2022/11/27 03:10:29;;;;;;;4.57;2.00;;;;;;;3.39;57.51;101401.31;10096595;29;20200;-79
2022/11/27 03:16:04;;;;;;;4.17;1.90;;;;;;;3.11;58.27;101395.94;10125337;29;20230;-80
2022/11/27 03:21:33;;;;;;;4.23;2.23;;;;;;;3.40;57.88;101388.22;10098167;29;20202;-81
2022/11/27 03:26:59;;;;;;;3.87;1.63;;;;;;;3.16;58.15;101393.25;10091065;29;20252;-79
2022/11/27 03:32:21;;;;;;;4.10;1.73;;;;;;;2.65;59.44;101386.97;10123207;29;20655;-80
2022/11/27 03:37:44;;;;;;;2.97;1.50;;;;;;;2.32;60.33;101379.56;10111049;29;20202;-79
2022/11/27 03:43:13;;;;;;;3.47;1.70;;;;;;;2.61;59.17;101369.13;10097826;29;20201;-80
2022/11/27 03:48:51;;;;;;;4.83;2.13;;;;;;;2.50;59.87;101372.88;10089903;29;20225;-79
2022/11/27 03:54:43;;;;;;;3.93;1.77;;;;;;;2.48;58.55;101371.44;10110731;29;20202;-81
2022/11/27 04:00:08;;;;;;;3.63;1.73;;;;;;;2.24;58.89;101379.16;10116668;29;20208;-80
2022/11/27 04:05:30;;;;;;;4.90;1.97;;;;;;;2.52;58.67;101373.44;10132482;29;20214;-89
2022/11/27 04:10:52;;;;;;;6.20;2.00;;;;;;;2.65;58.07;101364.72;10104324;29;20186;-79
2022/11/27 04:16:14;;;;;;;4.40;2.00;;;;;;;2.77;57.77;101361.00;10112625;29;20193;-79
2022/11/27 04:21:36;;;;;;;4.93;2.10;;;;;;;2.72;56.83;101351.47;10089531;29;20274;-79
2022/11/27 04:26:58;;;;;;;5.20;2.43;;;;;;;3.15;55.67;101335.84;10143749;29;20295;-79
2022/11/27 04:32:20;;;;;;;4.87;1.83;;;;;;;3.22;55.03;101328.09;10124356;29;21005;-80
2022/11/27 04:37:43;;;;;;;5.67;1.93;;;;;;;2.96;55.82;101326.97;10100220;29;20278;-81
2022/11/27 04:43:05;;;;;;;5.33;2.53;;;;;;;3.09;55.83;101309.03;10097168;29;20213;-78
2022/11/27 04:48:27;;;;;;;5.40;2.27;;;;;;;3.06;55.85;101292.81;10095866;29;20250;-78
2022/11/27 04:53:49;;;;;;;4.00;2.50;;;;;;;3.07;55.32;101300.09;10089135;29;20198;-79
2022/11/27 04:59:11;;;;;;;5.50;2.07;;;;;;;3.57;53.97;101301.69;10115747;29;20268;-80
2022/11/27 05:04:33;;;;;;;3.47;2.30;;;;;;;3.46;53.90;101293.25;10092137;29;20951;-82
2022/11/27 05:09:56;;;;;;;4.83;2.30;;;;;;;3.35;54.13;101263.59;10066153;29;20284;-79
2022/11/27 05:15:18;;;;;;;4.50;2.63;;;;;;;3.30;53.89;101254.34;10114940;29;20284;-79
2022/11/27 05:20:40;;;;;;;4.20;2.00;;;;;;;3.72;53.55;101263.63;10120334;29;20201;-79
2022/11/27 05:26:02;;;;;;;3.40;2.10;;;;;;;3.32;53.93;101247.41;10134059;29;20257;-79
2022/11/27 05:31:24;;;;;;;5.50;2.27;;;;;;;3.74;53.39;101244.69;10074517;29;20273;-79
2022/11/27 05:36:46;;;;;;;4.57;2.43;;;;;;;3.75;52.80;101251.13;10079033;29;20201;-79
2022/11/27 05:42:08;;;;;;;5.23;2.23;;;;;;;3.66;53.15;101248.00;10097605;29;20269;-80
2022/11/27 05:47:30;;;;;;;5.27;2.00;;;;;;;3.86;52.96;101247.31;10133658;29;20256;-79
2022/11/27 05:52:52;;;;;;;4.07;2.57;;;;;;;3.85;52.72;101240.06;10118464;29;20201;-81
2022/11/27 05:58:14;;;;;;;4.30;2.33;;;;;;;3.61;53.33;101222.84;10119546;29;20237;-80
2022/11/27 06:03:39;;;;;;;5.17;2.57;;;;;;;4.38;51.91;101224.16;10104515;29;20190;-79
2022/11/27 06:09:01;;;;;;;3.77;2.30;;;;;;;4.72;50.52;101216.22;10119210;29;20224;-80
2022/11/27 06:14:23;;;;;;;5.67;2.90;;;;;;;4.14;52.43;101216.25;10118500;29;20204;-80
2022/11/27 06:19:45;;;;;;;3.63;2.27;;;;;;;4.08;53.03;101220.09;10098004;29;20264;-80
2022/11/27 06:25:08;;;;;;;5.43;2.17;;;;;;;3.89;52.79;101215.28;10110329;29;20243;-89
2022/11/27 06:30:30;;;;;;;4.23;2.63;;;;;;;4.37;51.14;101208.53;10107363;29;20201;-80
2022/11/27 06:35:54;;;;;;;4.50;2.13;;;;;;;3.94;53.08;101199.41;10091974;29;20598;-80
2022/11/27 06:41:18;;;;;;;5.13;2.07;;;;;;;3.87;52.34;101198.81;10107035;29;20226;-80
2022/11/27 06:46:40;;;;;;;6.83;2.97;;;;;;;4.30;52.92;101185.63;10089245;29;20257;-80
2022/11/27 06:52:02;;;;;;;6.70;3.10;;;;;;;3.99;53.54;101179.91;10134847;29;20490;-79
2022/11/27 06:57:24;;;;;;;3.67;2.10;;;;;;;3.78;53.94;101175.34;10150505;29;20204;-79
2022/11/27 07:02:46;;;;;;;5.33;2.53;;;;;;;3.66;54.72;101180.25;10094780;29;20200;-79
2022/11/27 07:08:08;;;;;;;4.50;2.70;;;;;;;4.38;53.43;101171.16;10113276;29;20257;-81
2022/11/27 07:13:31;;;;;;;4.00;2.00;;;;;;;4.00;54.36;101166.78;10115108;29;20261;-78
2022/11/27 07:18:55;;;;;;;6.97;2.53;;;;;;;4.24;54.07;101158.81;10096956;29;20693;-79
2022/11/27 07:24:17;;;;;;;5.00;2.43;;;;;;;4.01;54.84;101163.75;10086853;29;20770;-78
2022/11/27 07:29:40;;;;;;;4.43;2.30;;;;;;;3.76;55.46;101152.44;10111664;29;20642;-79
2022/11/27 07:35:04;;;;;;;5.90;2.50;;;;;;;4.26;53.95;101151.00;10105169;29;20641;-83
2022/11/27 07:40:27;;;;;;;5.93;2.10;;;;;;;4.31;53.73;101165.84;10118502;29;20269;-90
2022/11/27 07:45:49;;;;;;;4.40;2.53;;;;;;;4.16;53.49;101169.41;10146996;29;20269;-90
2022/11/27 07:51:17;;;;;;;5.87;2.03;;;;;;;4.18;54.19;101154.34;10126703;29;20550;-81
2022/11/27 07:56:41;;;;;;;4.43;2.30;;;;;;;4.81;52.22;101148.38;10119434;29;20287;-82
2022/11/27 08:02:04;;;;;;;3.67;2.10;;;;;;;4.84;52.71;101142.25;10133179;29;20257;-89
2022/11/27 08:07:27;;;;;;;7.83;2.70;;;;;;;4.51;53.25;101131.53;10133092;29;20830;-90
2022/11/27 08:12:50;;;;;;;4.63;2.23;;;;;;;4.85;52.18;101113.16;10131056;29;20589;-89
2022/11/27 08:18:13;;;;;;;3.73;2.20;;;;;;;4.44;53.24;101115.06;10117843;29;20786;-83
2022/11/27 08:23:36;;;;;;;4.13;2.57;;;;;;;4.59;53.13;101113.44;10112209;29;20229;-87
2022/11/27 08:28:59;;;;;;;6.27;2.10;;;;;;;5.10;52.22;101106.78;10153204;29;20260;-81
2022/11/27 08:34:21;;;;;;;4.63;2.17;;;;;;;4.67;51.10;101098.91;10133191;29;20221;-78
2022/11/27 08:39:45;;;;;;;4.20;2.00;;;;;;;5.43;50.23;101082.97;10131138;29;20308;-83
2022/11/27 08:45:08;;;;;;;5.63;2.53;;;;;;;5.72;49.01;101071.16;10133557;29;20240;-81
2022/11/27 08:50:30;;;;;;;3.93;2.23;;;;;;;5.12;49.87;101078.50;10124861;29;21005;-79
2022/11/27 08:55:53;;;;;;;2.80;1.50;;;;;;;5.86;48.96;101059.09;10145074;29;20192;-83
2022/11/27 09:01:22;;;;;;;4.53;1.93;;;;;;;5.06;50.08;101055.34;10124635;29;20205;-86
2022/11/27 09:06:44;;;;;;;4.20;2.07;;;;;;;5.66;48.09;101049.91;10121426;29;20328;-82
2022/11/27 09:12:07;;;;;;;2.50;1.97;;;;;;;5.87;47.85;101037.53;10119437;29;20225;-83
2022/11/27 09:17:30;;;;;;;4.67;1.93;;;;;;;6.18;46.54;101036.22;10130359;29;20685;-81
2022/11/27 09:22:52;;;;;;;2.83;1.60;;;;;;;6.46;45.64;101051.50;10127574;29;20280;-80
2022/11/27 09:28:15;;;;;;;3.37;1.80;;;;;;;6.77;44.56;101056.88;10149877;29;20221;-94
2022/11/27 09:33:39;;;;;;;36.43;24.30;;;;;;;6.34;45.17;101064.13;10133522;29;20261;-89
2022/11/27 09:39:02;;;;;;;3.30;1.63;;;;;;;6.91;43.21;101058.72;10114156;29;20202;-79
2022/11/27 09:44:44;;;;;;;4.67;2.00;;;;;;;7.00;42.89;101048.53;10112397;29;20244;-79
2022/11/27 09:50:11;;;;;;;3.50;2.00;;;;;;;7.05;42.65;101041.22;10113588;29;20272;-91
2022/11/27 09:55:40;;;;;;;4.00;1.60;;;;;;;6.82;44.64;101043.63;10120938;29;20228;-83
2022/11/27 10:01:17;;;;;;;3.03;1.90;;;;;;;6.19;44.77;101043.50;10104103;29;20260;-89
2022/11/27 10:06:58;;;;;;;4.00;1.83;;;;;;;6.41;44.67;101036.69;10114996;29;20296;-83
2022/11/27 10:12:36;;;;;;;2.70;1.73;;;;;;;5.80;45.54;101029.44;10112988;29;20548;-81
2022/11/27 10:18:09;;;;;;;3.07;1.63;;;;;;;6.93;43.72;101019.19;10134201;29;20273;-92
2022/11/27 10:23:42;;;;;;;2.40;1.73;;;;;;;6.37;43.98;101021.56;10096413;29;20233;-91
2022/11/27 10:29:38;;;;;;;3.07;1.60;;;;;;;6.09;44.26;101023.97;10150165;29;20248;-88
2022/11/27 10:35:18;;;;;;;1.60;1.37;;;;;;;6.97;42.88;101021.09;10134722;29;20224;-87
2022/11/27 10:40:59;;;;;;;3.23;1.37;;;;;;;6.38;43.52;101004.47;10134577;29;20242;-86
2022/11/27 10:46:27;;;;;;;2.03;1.37;;;;;;;6.44;43.00;101008.94;10145615;29;20671;-92
2022/11/27 10:51:57;;;;;;;2.13;1.07;;;;;;;6.18;43.05;100988.66;10123835;29;20205;-94
2022/11/27 10:57:36;;;;;;;1.97;1.40;;;;;;;6.43;42.87;100992.41;10114126;29;20264;-92
2022/11/27 11:03:06;;;;;;;3.40;1.90;;;;;;;7.20;42.13;100984.97;10130609;29;20205;-80
2022/11/27 11:08:30;;;;;;;3.60;1.60;;;;;;;6.61;42.61;100980.53;10136250;29;20281;-92
2022/11/27 11:13:54;;;;;;;2.77;1.20;;;;;;;7.30;42.49;100966.09;10122672;29;20197;-90
2022/11/27 11:19:20;;;;;;;2.57;1.33;;;;;;;6.96;42.30;100971.78;10120885;29;20261;-92
2022/11/27 11:24:48;;;;;;;2.53;1.30;;;;;;;6.95;42.53;100958.91;10121652;29;20245;-90
2022/11/27 11:30:23;;;;;;;2.23;1.40;;;;;;;6.86;42.50;100954.22;10124597;29;20245;-91
2022/11/27 11:35:59;;;;;;;4.70;1.53;;;;;;;7.13;41.72;100939.66;10140410;29;20193;-92
2022/11/27 11:41:23;;;;;;;3.10;1.67;;;;;;;6.89;41.98;100926.47;10131356;29;20278;-88
2022/11/27 11:46:51;;;;;;;1.67;1.30;;;;;;;7.17;41.09;100918.31;10114273;29;20661;-90
2022/11/27 11:52:46;;;;;;;1.60;1.30;;;;;;;7.04;41.71;100905.84;10127504;29;20200;-89
2022/11/27 11:58:13;;;;;;;2.10;1.20;;;;;;;7.45;41.04;100900.53;10107670;29;20244;-84
2022/11/27 12:04:10;;;;;;;1.83;1.03;;;;;;;7.43;40.93;100888.81;10134254;29;20205;-89
2022/11/27 12:09:51;;;;;;;0.93;0.87;;;;;;;8.34;38.84;100876.22;10124683;29;20241;-91
2022/11/27 12:15:31;;;;;;;1.97;0.73;;;;;;;7.90;38.84;100873.84;10137422;29;20548;-89
2022/11/27 12:21:14;;;;;;;2.57;0.80;;;;;;;7.95;39.50;100859.75;10118766;29;20209;-80
2022/11/27 12:27:21;;;;;;;2.60;0.80;;;;;;;8.28;38.44;100845.69;10143288;29;20288;-88
2022/11/27 12:32:46;;;;;;;1.07;0.97;;;;;;;7.73;39.12;100834.25;10087625;29;20633;-85
2022/11/27 12:38:24;;;;;;;2.67;0.80;;;;;;;8.55;37.94;100816.81;10131895;29;20232;-92
2022/11/27 12:43:51;;;;;;;3.77;0.90;;;;;;;7.61;39.60;100815.06;10139306;29;20225;-91
2022/11/27 12:49:20;;;;;;;0.90;0.60;;;;;;;7.65;40.82;100809.69;10114272;29;20224;-87
2022/11/27 12:54:45;;;;;;;2.03;0.63;;;;;;;7.27;42.12;100801.25;10131940;29;20197;-89
2022/11/27 13:00:17;;;;;;;2.83;1.70;;;;;;;7.04;43.81;100776.91;10127609;29;20265;-90
2022/11/27 13:06:03;;;;;;;1.17;1.07;;;;;;;7.22;43.82;100738.81;10126578;29;20201;-81
2022/11/27 13:11:38;;;;;;;2.63;1.00;;;;;;;7.34;43.71;100734.41;10131382;29;20201;-84
2022/11/27 13:17:03;;;;;;;1.57;1.10;;;;;;;7.19;43.82;100733.81;10130868;29;20197;-84
2022/11/27 13:22:31;;;;;;;3.80;1.93;;;;;;;7.11;43.99;100728.88;10131603;29;20205;-87
2022/11/27 13:27:54;;;;;;;1.93;0.90;;;;;;;6.83;43.25;100711.91;10113889;29;20594;-84
2022/11/27 13:33:38;;;;;;;1.50;0.80;;;;;;;7.06;42.29;100701.75;10122631;29;20268;-90
2022/11/27 13:39:17;;;;;;;2.03;0.97;;;;;;;7.15;42.21;100704.72;10122774;29;20336;-81
2022/11/27 13:44:42;;;;;;;3.57;1.10;;;;;;;7.28;41.43;100701.16;10124613;29;20266;-79
2022/11/27 13:50:11;;;;;;;2.60;1.00;;;;;;;7.06;41.10;100703.75;10140453;29;20272;-91
2022/11/27 13:55:36;;;;;;;1.03;0.70;;;;;;;7.16;40.55;100700.78;10120547;29;20212;-88
2022/11/27 14:01:19;;;;;;;2.10;1.30;;;;;;;7.27;40.29;100691.06;10123940;29;20201;-87
2022/11/27 14:06:59;;;;;;;2.10;1.20;;;;;;;7.15;40.20;100680.34;10122054;29;20201;-91
2022/11/27 14:12:32;;;;;;;4.17;2.10;;;;;;;7.36;40.51;100683.63;10117745;29;20209;-90
2022/11/27 14:18:27;;;;;;;2.73;2.43;;;;;;;7.61;40.45;100668.38;10132610;29;20190;-90
2022/11/27 14:23:51;;;;;;;2.13;0.90;;;;;;;7.62;40.03;100670.88;10122686;29;20260;-92
2022/11/27 14:29:19;;;;;;;2.10;1.23;;;;;;;7.32;40.48;100672.19;10123813;29;20316;-87
2022/11/27 14:34:43;;;;;;;1.63;1.27;;;;;;;7.55;41.36;100664.84;10126114;29;20206;-93
2022/11/27 14:40:13;;;;;;;4.57;3.20;;;;;;;7.43;41.11;100672.88;10144223;29;20233;-94
2022/11/27 14:45:42;;;;;;;1.30;0.90;;;;;;;7.74;40.45;100681.59;10144912;29;20218;-85
2022/11/27 14:51:19;;;;;;;2.27;1.07;;;;;;;7.45;40.13;100678.97;10124433;29;20236;-90
2022/11/27 14:56:42;;;;;;;4.43;1.57;;;;;;;7.67;40.36;100690.44;10130221;29;20263;-90
2022/11/27 15:02:12;;;;;;;2.07;1.00;;;;;;;6.99;41.81;100690.94;10143118;29;20201;-94
2022/11/27 15:07:36;;;;;;;1.50;1.30;;;;;;;6.91;42.19;100677.63;10132376;29;20221;-89
2022/11/27 15:12:59;;;;;;;2.70;1.30;;;;;;;6.88;43.30;100663.38;10153469;29;20271;-88
2022/11/27 15:18:23;;;;;;;3.00;1.00;;;;;;;6.51;44.43;100655.78;10104109;29;20213;-88
2022/11/27 15:23:49;;;;;;;3.40;0.90;;;;;;;7.42;42.76;100657.19;10129081;29;20237;-91
2022/11/27 15:30:01;;;;;;;3.80;1.40;;;;;;;7.31;43.74;100672.50;10121254;29;20236;-88
2022/11/27 15:35:28;;;;;;;2.90;1.40;;;;;;;7.15;45.51;100654.28;10061877;29;20237;-80
2022/11/27 15:40:59;;;;;;;2.97;1.97;;;;;;;6.81;47.87;100649.72;10133833;29;20597;-80
2022/11/27 15:46:33;;;;;;;1.70;1.57;;;;;;;7.01;47.79;100643.81;10121603;29;20232;-88
2022/11/27 15:51:56;;;;;;;2.47;2.10;;;;;;;6.42;48.36;100646.34;10121829;29;20237;-83
2022/11/27 15:57:19;;;;;;;2.20;1.80;;;;;;;6.70;49.89;100641.78;10109000;29;20205;-83
2022/11/27 16:02:41;;;;;;;3.23;1.63;;;;;;;6.44;49.55;100622.53;10109044;29;20209;-89
2022/11/27 16:08:04;;;;;;;4.07;1.67;;;;;;;6.00;51.79;100621.97;10135126;29;20281;-77
2022/11/27 16:13:26;;;;;;;8.47;1.70;;;;;;;6.07;50.91;100614.03;10126527;29;20634;-80
2022/11/27 16:18:48;;;;;;;1.50;1.40;;;;;;;6.51;50.03;100617.41;10122619;29;20233;-79
2022/11/27 16:24:12;;;;;;;4.70;2.07;;;;;;;5.84;52.57;100613.75;10129717;29;20237;-77
2022/11/27 16:29:34;;;;;;;4.70;2.10;;;;;;;5.51;52.65;100603.47;10144744;29;20260;-81
2022/11/27 16:34:57;;;;;;;2.20;1.17;;;;;;;5.54;52.91;100594.50;10120622;29;20244;-79
2022/11/27 16:40:19;;;;;;;2.30;1.50;;;;;;;5.60;52.56;100587.72;10120365;29;20268;-78
2022/11/27 16:45:42;;;;;;;2.97;1.70;;;;;;;5.44;52.00;100563.84;10118632;29;20681;-89
2022/11/27 16:51:21;;;;;;;2.50;1.50;;;;;;;5.62;51.42;100554.72;10162766;29;20232;-79
2022/11/27 16:56:45;;;;;;;3.83;1.90;;;;;;;5.86;50.67;100549.13;10114520;29;20232;-79
2022/11/27 17:02:09;;;;;;;2.37;1.70;;;;;;;5.64;50.99;100546.84;10154174;29;20284;-78
2022/11/27 17:07:31;;;;;;;2.63;1.90;;;;;;;5.98;50.62;100546.72;10133298;29;20310;-80
2022/11/27 17:12:55;;;;;;;2.40;2.17;;;;;;;5.56;51.82;100542.75;10126038;29;20262;-79
2022/11/27 17:18:17;;;;;;;2.37;1.53;;;;;;;5.81;51.25;100529.59;10093331;29;20598;-79
2022/11/27 17:23:42;;;;;;;3.83;1.70;;;;;;;5.76;51.90;100532.47;10165122;29;20199;-79
2022/11/27 17:29:10;;;;;;;2.67;1.97;;;;;;;5.75;51.72;100514.03;10115807;29;20220;-78
2022/11/27 17:34:33;;;;;;;2.87;1.70;;;;;;;5.92;50.72;100503.97;10131552;29;20453;-78
2022/11/27 17:39:55;;;;;;;1.47;1.03;;;;;;;5.67;50.35;100495.09;10109730;29;20492;-80
2022/11/27 17:45:17;;;;;;;2.70;1.37;;;;;;;5.50;50.13;100487.22;10120619;29;20331;-79
2022/11/27 17:50:39;;;;;;;4.17;1.80;;;;;;;5.54;49.88;100475.09;10127081;29;20716;-82
2022/11/27 17:56:07;;;;;;;2.87;1.40;;;;;;;5.26;51.39;100470.41;10151348;29;20228;-80
2022/11/27 18:01:29;;;;;;;2.97;1.47;;;;;;;5.40;51.14;100457.38;10110753;29;20618;-81
2022/11/27 18:06:51;;;;;;;1.67;1.40;;;;;;;5.48;49.51;100441.94;10118431;29;20233;-80
2022/11/27 18:12:13;;;;;;;2.13;1.20;;;;;;;5.11;49.72;100437.03;10107005;29;20263;-79
2022/11/27 18:17:36;;;;;;;4.80;1.37;;;;;;;5.37;49.31;100427.22;10147808;29;20600;-80
2022/11/27 18:22:58;;;;;;;2.53;1.50;;;;;;;5.31;49.64;100411.69;10149831;29;20340;-92
2022/11/27 18:28:20;;;;;;;2.60;1.47;;;;;;;5.27;49.21;100406.97;10157633;29;20515;-90
2022/11/27 18:33:44;;;;;;;2.80;1.27;;;;;;;5.18;49.67;100398.44;10161979;29;20575;-80
2022/11/27 18:39:06;;;;;;;2.57;1.20;;;;;;;5.21;49.43;100387.50;10135600;29;20228;-80
2022/11/27 18:44:28;;;;;;;2.40;1.20;;;;;;;5.36;48.64;100394.03;10136357;29;20609;-79
2022/11/27 18:49:50;;;;;;;2.13;1.37;;;;;;;5.77;48.62;100391.47;10130235;29;20268;-79
2022/11/27 18:55:12;;;;;;;3.67;1.63;;;;;;;5.93;48.15;100376.13;10156322;29;20228;-80
2022/11/27 19:00:34;;;;;;;2.50;1.63;;;;;;;5.73;47.69;100387.63;10146572;29;20550;-78
2022/11/27 19:05:59;;;;;;;1.90;1.20;;;;;;;5.38;48.79;100383.34;10161458;29;20228;-78
2022/11/27 19:11:23;;;;;;;2.20;1.50;;;;;;;5.50;49.08;100353.81;10120502;29;20230;-91
2022/11/27 19:16:45;;;;;;;1.90;1.27;;;;;;;5.43;49.12;100350.59;10154160;29;20467;-80
2022/11/27 19:22:07;;;;;;;3.30;1.67;;;;;;;5.25;50.10;100343.00;10139507;29;20279;-79
2022/11/27 19:27:32;;;;;;;2.83;1.50;;;;;;;5.48;50.30;100321.75;10135123;29;20272;-79
2022/11/27 19:32:54;;;;;;;2.20;1.57;;;;;;;5.19;50.35;100317.09;10125581;29;20673;-92
2022/11/27 19:38:16;;;;;;;3.13;1.70;;;;;;;5.19;51.66;100325.50;10113054;29;20256;-79
2022/11/27 19:43:38;;;;;;;2.37;1.67;;;;;;;5.28;50.88;100320.03;10099139;29;20600;-79
2022/11/27 19:49:03;;;;;;;2.00;1.43;;;;;;;5.94;49.18;100338.63;10114800;29;20256;-81
2022/11/27 19:54:26;;;;;;;2.83;1.80;;;;;;;5.99;49.60;100352.53;10088999;29;20238;-88
2022/11/27 19:59:48;;;;;;;2.90;1.60;;;;;;;5.54;50.22;100329.72;10091366;29;20297;-80
2022/11/27 20:05:19;;;;;;;1.27;1.17;;;;;;;5.39;50.65;100307.59;10128945;29;20208;-80
2022/11/27 20:10:48;;;;;;;1.57;1.47;;;;;;;5.82;48.56;100285.13;10110647;29;20216;-80
2022/11/27 20:16:12;;;;;;;3.23;2.10;;;;;;;5.95;48.50;100301.13;10112690;29;20253;-92
2022/11/27 20:21:36;;;;;;;3.33;2.40;;;;;;;5.87;48.05;100290.66;10108943;29;20201;-82
2022/11/27 20:26:58;;;;;;;4.60;1.60;;;;;;;6.04;47.60;100296.50;10104959;29;20503;-80
2022/11/27 20:32:20;;;;;;;4.80;1.50;;;;;;;6.31;47.01;100304.97;10111207;29;20705;-80
2022/11/27 20:37:43;;;;;;;2.07;1.53;;;;;;;6.03;48.42;100294.00;10108063;29;20264;-80
2022/11/27 20:43:07;;;;;;;3.13;1.90;;;;;;;6.12;47.45;100290.22;10129814;29;20403;-80
2022/11/27 20:48:30;;;;;;;3.03;1.57;;;;;;;6.49;46.34;100277.25;10106009;29;20217;-82
2022/11/27 20:53:52;;;;;;;3.37;1.70;;;;;;;6.08;48.55;100277.97;10088773;29;20205;-80
2022/11/27 20:59:14;;;;;;;3.90;2.10;;;;;;;6.26;46.52;100263.09;10131191;29;20257;-80
2022/11/27 21:04:37;;;;;;;4.63;1.70;;;;;;;6.17;46.77;100250.09;10130245;29;20269;-79
2022/11/27 21:09:59;;;;;;;3.37;1.50;;;;;;;5.77;47.78;100244.09;10126176;29;20242;-79
2022/11/27 21:15:21;;;;;;;2.40;1.70;;;;;;;6.06;47.43;100243.03;10109827;29;20626;-79
2022/11/27 21:20:43;;;;;;;5.83;3.70;;;;;;;5.87;47.50;100237.50;10122810;29;20213;-79
2022/11/27 21:26:06;;;;;;;4.17;1.83;;;;;;;5.61;47.88;100225.09;10122621;29;20527;-79
2022/11/27 21:31:29;;;;;;;3.33;1.93;;;;;;;6.05;47.30;100222.59;10109630;29;20284;-79
2022/11/27 21:36:52;;;;;;;3.30;1.70;;;;;;;5.37;48.70;100223.22;10139235;29;20209;-79
2022/11/27 21:42:14;;;;;;;2.57;1.60;;;;;;;5.49;48.17;100219.97;10125187;29;20542;-79
2022/11/27 21:47:36;;;;;;;2.83;1.80;;;;;;;5.68;48.42;100226.34;10121919;29;20638;-79
2022/11/27 21:52:58;;;;;;;3.63;2.40;;;;;;;5.92;47.46;100213.06;10120236;29;20253;-79
2022/11/27 21:58:21;;;;;;;2.80;1.87;;;;;;;5.64;48.77;100210.47;10114690;29;20272;-79
2022/11/27 22:03:43;;;;;;;2.40;1.97;;;;;;;5.71;49.12;100205.34;10104988;29;20212;-79
2022/11/27 22:09:06;;;;;;;1.80;1.50;;;;;;;5.57;49.58;100183.75;10100428;29;20224;-79
2022/11/27 22:14:28;;;;;;;2.27;1.57;;;;;;;5.56;48.96;100165.31;10124582;29;20201;-79
2022/11/27 22:19:50;;;;;;;2.87;1.37;;;;;;;5.38;49.31;100157.78;10135375;29;20244;-81
2022/11/27 22:25:13;;;;;;;2.23;1.97;;;;;;;5.53;48.12;100160.34;10108706;29;20252;-81
2022/11/27 22:30:35;;;;;;;2.50;1.13;;;;;;;5.75;48.64;100156.06;10108415;29;20229;-79
2022/11/27 22:35:57;;;;;;;2.63;1.67;;;;;;;5.66;49.07;100138.31;10108582;29;20217;-80
2022/11/27 22:41:21;;;;;;;2.03;1.77;;;;;;;5.47;50.41;100128.03;10121058;29;20277;-79
2022/11/27 22:46:44;;;;;;;2.03;1.63;;;;;;;5.91;49.20;100133.06;10107928;29;20233;-79
2022/11/27 22:52:06;;;;;;;2.20;1.57;;;;;;;6.25;48.93;100127.09;10105530;29;20369;-79
2022/11/27 22:57:28;;;;;;;5.43;2.00;;;;;;;6.55;48.03;100130.38;10108277;29;20245;-80
2022/11/27 23:02:50;;;;;;;3.63;1.77;;;;;;;6.90;48.44;100149.19;10127670;29;20598;-80
2022/11/27 23:08:12;;;;;;;2.10;1.67;;;;;;;6.28;48.43;100154.44;10143856;29;20253;-80
2022/11/27 23:13:35;;;;;;;2.40;1.97;;;;;;;6.20;49.44;100152.38;10133878;29;20225;-80
2022/11/27 23:18:57;;;;;;;3.03;1.70;;;;;;;6.30;48.75;100143.75;10134179;29;20209;-80
2022/11/27 23:24:19;;;;;;;2.87;1.93;;;;;;;6.10;49.86;100141.38;10108035;29;20556;-80
2022/11/27 23:29:48;;;;;;;4.07;1.70;;;;;;;6.06;49.54;100129.13;10141660;29;20659;-79
2022/11/27 23:35:10;;;;;;;3.07;2.00;;;;;;;6.40;49.35;100116.75;10111780;29;20217;-80
2022/11/27 23:40:32;;;;;;;2.30;1.60;;;;;;;5.94;51.14;100103.66;10129798;29;20253;-80
2022/11/27 23:45:55;;;;;;;3.30;2.03;;;;;;;5.67;50.99;100107.25;10143536;29;20209;-79
2022/11/27 23:51:20;;;;;;;2.03;1.50;;;;;;;5.85;50.70;100099.94;10143053;29;20576;-81
2022/11/27 23:56:43;;;;;;;2.53;1.70;;;;;;;5.45;52.59;100095.94;10129440;29;20233;-80
